Time;durP1;ratioP1;P1;durP2;ratioP2;P2;SDS_P1;SDS_P2;PMS_P1;PMS_P2;Temp;Humidity;BMP_temperature;BMP_pressure;BME280_temperature;BME280_humidity;BME280_pressure;Samples;Min_cycle;Max_cycle;Signal;HPM_P1;HPM_P2
2021/12/09 00:00:43;;;;;;;18.05;5.15;;;;;;;;;;4945008;28;20027;-83
2021/12/09 00:03:10;;;;;;;23.45;6.32;;;;;;;;;;4957949;28;20035;-83
2021/12/09 00:05:37;;;;;;;16.35;5.80;;;;;;;;;;4952156;28;20027;-83
2021/12/09 00:08:04;;;;;;;15.75;4.55;;;;;;;;;;4946798;28;20137;-83
2021/12/09 00:10:30;;;;;;;9.75;4.07;;;;;;;;;;4982851;28;20030;-83
2021/12/09 00:12:56;;;;;;;11.13;4.50;;;;;;;;;;4981351;28;20034;-83
2021/12/09 00:15:22;;;;;;;10.85;5.53;;;;;;;;;;4982145;28;20030;-83
2021/12/09 00:17:48;;;;;;;17.65;6.10;;;;;;;;;;4981489;28;20114;-83
2021/12/09 00:20:15;;;;;;;18.05;6.00;;;;;;;;;;4983803;28;20042;-83
2021/12/09 00:22:42;;;;;;;13.70;5.93;;;;;;;;;;4962087;28;20064;-83
2021/12/09 00:25:08;;;;;;;15.25;5.82;;;;;;;;;;4966965;28;20034;-83
2021/12/09 00:27:34;;;;;;;17.92;6.43;;;;;;;;;;4980539;28;20117;-83
2021/12/09 00:30:01;;;;;;;13.60;5.28;;;;;;;;;;4964962;28;20110;-83
2021/12/09 00:32:27;;;;;;;17.88;6.63;;;;;;;;;;4980943;28;20675;-83
2021/12/09 00:34:53;;;;;;;15.18;5.93;;;;;;;;;;4985614;28;20026;-83
2021/12/09 00:39:47;;;;;;;13.80;5.80;;;;;;;;;;4984525;28;20047;-83
2021/12/09 00:42:13;;;;;;;15.05;5.60;;;;;;;;;;4981733;28;20040;-84
2021/12/09 00:44:39;;;;;;;17.92;6.68;;;;;;;;;;4984963;28;20061;-83
2021/12/09 00:47:05;;;;;;;13.63;5.68;;;;;;;;;;4980795;28;20570;-83
2021/12/09 00:49:32;;;;;;;14.82;6.25;;;;;;;;;;4966384;28;20030;-83
2021/12/09 00:51:58;;;;;;;17.60;5.68;;;;;;;;;;4978344;28;20114;-83
2021/12/09 00:54:24;;;;;;;17.45;5.97;;;;;;;;;;4968464;28;20820;-84
2021/12/09 00:56:50;;;;;;;17.50;7.13;;;;;;;;;;4982400;28;20037;-83
2021/12/09 00:59:16;;;;;;;14.00;6.05;;;;;;;;;;4984137;28;20031;-83
2021/12/09 01:01:43;;;;;;;21.63;7.53;;;;;;;;;;4963727;28;20030;-83
2021/12/09 01:04:09;;;;;;;19.15;6.43;;;;;;;;;;4981018;28;20035;-84
2021/12/09 01:06:35;;;;;;;17.05;7.15;;;;;;;;;;4970733;28;20532;-84
2021/12/09 01:09:02;;;;;;;18.83;6.40;;;;;;;;;;4984665;28;20038;-83
2021/12/09 01:11:28;;;;;;;21.38;6.97;;;;;;;;;;4983435;28;20061;-83
2021/12/09 01:13:54;;;;;;;18.67;7.00;;;;;;;;;;4985184;28;20038;-84
2021/12/09 01:16:20;;;;;;;21.17;6.40;;;;;;;;;;4961994;28;20188;-83
2021/12/09 01:18:47;;;;;;;18.60;6.75;;;;;;;;;;4981957;28;20032;-83
2021/12/09 01:21:13;;;;;;;19.77;7.35;;;;;;;;;;4964376;28;20189;-83
2021/12/09 01:23:40;;;;;;;18.67;6.30;;;;;;;;;;4983150;28;20064;-84
2021/12/09 01:26:07;;;;;;;18.23;6.22;;;;;;;;;;4979122;28;20487;-83
2021/12/09 01:28:43;;;;;;;26.08;6.93;;;;;;;;;;4963268;28;20037;-83
2021/12/09 01:31:09;;;;;;;22.13;7.15;;;;;;;;;;4965275;28;20058;-84
2021/12/09 01:33:36;;;;;;;16.48;5.80;;;;;;;;;;4956687;28;20545;-84
2021/12/09 01:36:04;;;;;;;24.95;7.60;;;;;;;;;;4944758;28;20097;-84
2021/12/09 01:38:32;;;;;;;16.60;6.40;;;;;;;;;;4962260;28;20098;-83
2021/12/09 01:40:58;;;;;;;19.58;6.85;;;;;;;;;;4949721;28;20506;-83
2021/12/09 01:43:25;;;;;;;23.25;6.38;;;;;;;;;;4948942;28;20164;-84
2021/12/09 01:46:04;;;;;;;13.20;4.65;;;;;;;;;;4970168;28;20506;-84
2021/12/09 01:48:30;;;;;;;24.08;7.68;;;;;;;;;;4958116;28;20615;-83
2021/12/09 01:50:56;;;;;;;17.15;5.40;;;;;;;;;;4965850;28;20031;-84
2021/12/09 01:53:22;;;;;;;19.50;7.75;;;;;;;;;;4962646;28;20031;-83
2021/12/09 01:55:48;;;;;;;17.83;6.70;;;;;;;;;;4969616;28;20043;-84
2021/12/09 01:58:14;;;;;;;19.70;7.15;;;;;;;;;;4964691;28;20027;-83
2021/12/09 02:00:40;;;;;;;21.05;7.45;;;;;;;;;;4949640;28;20035;-83
2021/12/09 02:03:06;;;;;;;15.88;6.95;;;;;;;;;;4965419;28;20026;-84
2021/12/09 02:05:33;;;;;;;19.65;7.47;;;;;;;;;;4962464;28;20031;-83
2021/12/09 02:07:59;;;;;;;24.08;7.22;;;;;;;;;;4965597;28;20439;-84
2021/12/09 02:10:25;;;;;;;18.42;7.20;;;;;;;;;;4946464;28;20038;-83
2021/12/09 02:12:52;;;;;;;16.33;7.68;;;;;;;;;;4958507;28;20027;-83
2021/12/09 02:15:21;;;;;;;21.85;9.25;;;;;;;;;;4960098;28;20039;-84
2021/12/09 02:17:47;;;;;;;12.02;5.78;;;;;;;;;;4963524;28;20026;-83
2021/12/09 02:20:13;;;;;;;22.77;8.02;;;;;;;;;;4960377;28;20042;-84
2021/12/09 02:22:45;;;;;;;28.05;8.15;;;;;;;;;;4948480;28;20439;-84
2021/12/09 02:25:11;;;;;;;25.70;8.13;;;;;;;;;;4965234;28;20045;-83
2021/12/09 02:27:37;;;;;;;15.13;7.30;;;;;;;;;;4967388;28;20447;-84
2021/12/09 02:30:11;;;;;;;26.58;8.77;;;;;;;;;;4964714;28;20051;-83
2021/12/09 02:32:43;;;;;;;28.40;9.05;;;;;;;;;;4982570;28;20045;-84
2021/12/09 02:35:16;;;;;;;20.85;8.30;;;;;;;;;;4964374;28;20042;-84
2021/12/09 02:37:44;;;;;;;23.98;8.30;;;;;;;;;;4960600;28;20050;-83
2021/12/09 02:40:11;;;;;;;21.10;8.55;;;;;;;;;;4960866;28;20085;-83
2021/12/09 02:42:38;;;;;;;23.20;8.95;;;;;;;;;;4984607;28;20030;-84
2021/12/09 02:45:06;;;;;;;20.40;8.13;;;;;;;;;;4982405;28;20030;-84
2021/12/09 02:47:33;;;;;;;21.70;7.53;;;;;;;;;;4984691;28;20072;-84
2021/12/09 02:49:59;;;;;;;19.60;7.40;;;;;;;;;;4986556;28;20038;-83
2021/12/09 02:52:26;;;;;;;26.23;8.68;;;;;;;;;;4964637;28;20045;-83
2021/12/09 02:54:52;;;;;;;20.63;8.60;;;;;;;;;;4982203;28;20026;-84
2021/12/09 02:57:18;;;;;;;21.35;9.18;;;;;;;;;;4981734;28;20034;-84
2021/12/09 02:59:44;;;;;;;23.65;8.77;;;;;;;;;;4963332;28;20474;-84
2021/12/09 03:02:11;;;;;;;16.02;8.73;;;;;;;;;;4960860;28;20504;-83
2021/12/09 03:04:49;;;;;;;24.85;8.70;;;;;;;;;;4964809;28;20030;-84
2021/12/09 03:07:23;;;;;;;24.30;9.00;;;;;;;;;;4981313;28;20038;-83
2021/12/09 03:09:52;;;;;;;16.95;8.82;;;;;;;;;;4985175;28;20026;-84
2021/12/09 03:12:20;;;;;;;17.02;8.43;;;;;;;;;;4962957;28;20437;-84
2021/12/09 03:14:46;;;;;;;21.77;8.07;;;;;;;;;;4966917;28;20609;-84
2021/12/09 03:17:12;;;;;;;26.50;8.30;;;;;;;;;;4963319;28;20592;-84
2021/12/09 03:19:38;;;;;;;19.88;9.43;;;;;;;;;;4965311;28;20054;-84
2021/12/09 03:22:05;;;;;;;23.73;8.38;;;;;;;;;;4965509;28;20026;-84
2021/12/09 03:24:31;;;;;;;17.40;7.13;;;;;;;;;;4968464;28;20034;-84
2021/12/09 03:26:57;;;;;;;16.20;8.07;;;;;;;;;;4980882;28;20854;-84
2021/12/09 03:29:24;;;;;;;17.52;7.88;;;;;;;;;;4983538;28;20034;-84
2021/12/09 03:31:52;;;;;;;29.55;8.52;;;;;;;;;;4982903;28;20050;-83
2021/12/09 03:34:19;;;;;;;22.60;9.35;;;;;;;;;;4963160;28;20061;-84
2021/12/09 03:36:47;;;;;;;11.93;6.28;;;;;;;;;;4979155;28;20932;-84
2021/12/09 03:39:17;;;;;;;19.60;9.20;;;;;;;;;;4983459;28;20822;-84
2021/12/09 03:41:44;;;;;;;14.20;6.82;;;;;;;;;;4980298;28;20073;-84
2021/12/09 03:44:10;;;;;;;24.63;9.30;;;;;;;;;;4960754;28;20157;-83
2021/12/09 03:46:36;;;;;;;18.05;8.00;;;;;;;;;;4963730;28;20031;-84
2021/12/09 03:49:03;;;;;;;15.70;8.73;;;;;;;;;;4979186;28;20066;-84
2021/12/09 03:51:29;;;;;;;18.00;9.23;;;;;;;;;;4977021;28;20092;-83
2021/12/09 03:53:58;;;;;;;24.85;9.00;;;;;;;;;;4978947;28;20119;-84
2021/12/09 03:56:24;;;;;;;28.27;9.30;;;;;;;;;;4980874;28;20128;-84
2021/12/09 03:58:51;;;;;;;22.33;8.77;;;;;;;;;;4981017;28;20431;-84
2021/12/09 04:01:17;;;;;;;19.33;9.02;;;;;;;;;;4968579;28;20069;-84
2021/12/09 04:03:43;;;;;;;32.47;9.40;;;;;;;;;;4983573;28;20529;-84
2021/12/09 04:06:09;;;;;;;29.48;9.23;;;;;;;;;;4967922;28;20539;-84
2021/12/09 04:08:35;;;;;;;21.70;9.75;;;;;;;;;;4979215;28;20077;-84
2021/12/09 04:11:01;;;;;;;21.52;8.88;;;;;;;;;;4967519;28;20482;-83
2021/12/09 04:13:28;;;;;;;18.75;8.82;;;;;;;;;;4960956;28;20033;-84
2021/12/09 04:15:54;;;;;;;22.92;9.63;;;;;;;;;;4966461;28;20041;-83
2021/12/09 04:18:21;;;;;;;18.70;8.18;;;;;;;;;;4962474;28;20474;-84
2021/12/09 04:20:49;;;;;;;20.15;9.45;;;;;;;;;;4968802;28;20368;-84
2021/12/09 04:23:15;;;;;;;21.48;9.93;;;;;;;;;;4980753;28;20062;-84
2021/12/09 04:25:41;;;;;;;23.45;9.40;;;;;;;;;;4967199;28;20030;-84
2021/12/09 04:28:07;;;;;;;29.95;10.15;;;;;;;;;;4977868;28;20026;-84
2021/12/09 04:30:33;;;;;;;16.20;8.23;;;;;;;;;;4969090;28;20038;-84
2021/12/09 04:32:59;;;;;;;27.00;10.13;;;;;;;;;;4983129;28;20057;-84
2021/12/09 04:35:29;;;;;;;22.05;9.00;;;;;;;;;;4964770;28;20047;-84
2021/12/09 04:37:55;;;;;;;17.27;9.50;;;;;;;;;;4981592;28;20486;-84
2021/12/09 04:40:21;;;;;;;24.15;10.25;;;;;;;;;;4982199;28;20510;-85
2021/12/09 04:42:47;;;;;;;33.80;9.95;;;;;;;;;;4982247;28;20030;-84
2021/12/09 04:45:13;;;;;;;22.77;8.90;;;;;;;;;;4984830;28;20030;-85
2021/12/09 04:47:40;;;;;;;25.33;9.82;;;;;;;;;;4981669;28;20030;-84
2021/12/09 04:50:07;;;;;;;27.67;9.55;;;;;;;;;;4970156;28;20390;-84
2021/12/09 04:52:33;;;;;;;21.90;9.52;;;;;;;;;;4978878;28;20034;-84
2021/12/09 04:54:59;;;;;;;34.13;10.73;;;;;;;;;;4967233;28;20081;-85
2021/12/09 04:57:25;;;;;;;20.15;10.07;;;;;;;;;;4982914;28;20050;-84
2021/12/09 04:59:52;;;;;;;27.33;9.27;;;;;;;;;;4981057;28;20318;-85
2021/12/09 05:02:30;;;;;;;23.65;9.70;;;;;;;;;;4984272;28;20027;-83
2021/12/09 05:04:56;;;;;;;27.05;10.85;;;;;;;;;;4966240;28;20026;-84
2021/12/09 05:07:22;;;;;;;19.77;10.07;;;;;;;;;;4981687;28;20101;-84
2021/12/09 05:09:52;;;;;;;21.85;9.02;;;;;;;;;;4961683;28;20477;-85
2021/12/09 05:12:20;;;;;;;23.88;9.95;;;;;;;;;;4965055;28;20030;-84
2021/12/09 05:14:47;;;;;;;27.48;10.68;;;;;;;;;;4982159;28;20058;-85
2021/12/09 05:17:13;;;;;;;24.52;9.43;;;;;;;;;;4990651;28;20026;-84
2021/12/09 05:19:39;;;;;;;32.75;10.55;;;;;;;;;;4983070;28;20057;-84
2021/12/09 05:22:05;;;;;;;27.23;9.88;;;;;;;;;;4970334;28;20034;-84
2021/12/09 05:24:34;;;;;;;20.30;10.27;;;;;;;;;;4970906;28;20383;-84
2021/12/09 05:27:01;;;;;;;31.23;9.70;;;;;;;;;;4984206;28;20368;-84
2021/12/09 05:29:32;;;;;;;21.77;10.65;;;;;;;;;;4984836;28;20379;-85
2021/12/09 05:32:08;;;;;;;22.92;9.68;;;;;;;;;;4985749;28;20046;-85
2021/12/09 05:34:40;;;;;;;28.10;9.80;;;;;;;;;;4961721;28;20738;-85
2021/12/09 05:37:07;;;;;;;26.23;10.30;;;;;;;;;;4946837;28;20082;-85
2021/12/09 05:39:33;;;;;;;29.92;9.88;;;;;;;;;;4951829;28;20042;-84
2021/12/09 05:41:59;;;;;;;26.15;10.05;;;;;;;;;;4946917;28;20436;-85
2021/12/09 05:44:26;;;;;;;33.67;10.68;;;;;;;;;;4968833;28;20475;-84
2021/12/09 05:46:52;;;;;;;20.02;9.75;;;;;;;;;;4945682;28;20491;-85
2021/12/09 05:49:20;;;;;;;18.70;9.00;;;;;;;;;;4944181;28;20138;-85
2021/12/09 05:51:46;;;;;;;28.42;11.00;;;;;;;;;;4957958;28;20058;-85
2021/12/09 05:54:12;;;;;;;28.95;12.15;;;;;;;;;;4969534;28;20035;-85
2021/12/09 05:56:38;;;;;;;27.08;11.48;;;;;;;;;;4946357;28;20090;-85
2021/12/09 05:59:05;;;;;;;28.70;10.40;;;;;;;;;;4943783;28;20031;-84
2021/12/09 06:01:31;;;;;;;16.02;8.00;;;;;;;;;;4963119;28;20027;-84
2021/12/09 06:03:57;;;;;;;29.92;10.25;;;;;;;;;;4941339;28;20551;-84
2021/12/09 06:06:23;;;;;;;28.90;10.80;;;;;;;;;;4942961;28;20522;-84
2021/12/09 06:08:50;;;;;;;30.88;10.82;;;;;;;;;;4950040;28;20062;-84
2021/12/09 06:11:16;;;;;;;27.70;9.35;;;;;;;;;;4971331;28;20093;-85
2021/12/09 06:13:42;;;;;;;18.08;9.13;;;;;;;;;;4968462;28;20043;-85
2021/12/09 06:16:09;;;;;;;21.10;7.28;;;;;;;;;;4948359;28;20109;-85
2021/12/09 06:18:35;;;;;;;22.92;9.35;;;;;;;;;;4949015;28;20035;-84
2021/12/09 06:21:01;;;;;;;14.52;6.72;;;;;;;;;;4963097;28;20530;-84
2021/12/09 06:23:27;;;;;;;34.03;14.70;;;;;;;;;;4966888;28;20054;-85
2021/12/09 06:25:54;;;;;;;27.60;12.43;;;;;;;;;;4957764;28;20070;-85
2021/12/09 06:28:20;;;;;;;28.58;11.65;;;;;;;;;;4965884;28;20093;-84
2021/12/09 06:30:46;;;;;;;24.42;10.38;;;;;;;;;;4950458;28;20086;-82
2021/12/09 06:33:12;;;;;;;21.23;10.23;;;;;;;;;;4966158;28;20066;-82
2021/12/09 06:35:38;;;;;;;26.02;9.63;;;;;;;;;;4964747;28;20101;-82
2021/12/09 06:38:08;;;;;;;20.60;9.95;;;;;;;;;;4947129;28;20074;-82
2021/12/09 06:40:34;;;;;;;31.58;9.88;;;;;;;;;;4958883;28;20605;-83
2021/12/09 06:43:00;;;;;;;25.73;10.13;;;;;;;;;;4950300;28;20027;-82
2021/12/09 06:45:27;;;;;;;28.00;9.80;;;;;;;;;;4949376;28;20086;-83
2021/12/09 06:47:54;;;;;;;32.85;11.95;;;;;;;;;;4944782;28;20384;-83
2021/12/09 06:50:21;;;;;;;35.20;11.50;;;;;;;;;;4967002;28;20025;-82
2021/12/09 06:52:51;;;;;;;29.67;11.00;;;;;;;;;;4963829;28;20065;-83
2021/12/09 06:55:18;;;;;;;32.88;11.13;;;;;;;;;;4963693;28;20027;-82
2021/12/09 06:57:47;;;;;;;26.40;11.57;;;;;;;;;;4942910;28;20509;-82
2021/12/09 07:00:15;;;;;;;28.42;10.98;;;;;;;;;;4964293;28;20034;-83
2021/12/09 07:02:41;;;;;;;37.85;11.77;;;;;;;;;;4945297;28;20030;-83
2021/12/09 07:05:08;;;;;;;28.20;10.63;;;;;;;;;;4967589;28;20030;-83
2021/12/09 07:07:34;;;;;;;26.52;10.88;;;;;;;;;;4941310;28;20126;-82
2021/12/09 07:10:00;;;;;;;30.02;10.27;;;;;;;;;;4959852;28;20042;-83
2021/12/09 07:12:26;;;;;;;29.83;11.02;;;;;;;;;;4943475;28;20037;-83
2021/12/09 07:14:52;;;;;;;30.85;10.40;;;;;;;;;;4963907;28;20023;-83
2021/12/09 07:17:20;;;;;;;25.30;10.90;;;;;;;;;;4964014;28;20046;-82
2021/12/09 07:19:46;;;;;;;26.73;11.13;;;;;;;;;;4947565;28;20034;-83
2021/12/09 07:22:12;;;;;;;25.95;10.02;;;;;;;;;;4960045;28;20678;-83
2021/12/09 07:24:38;;;;;;;30.85;11.35;;;;;;;;;;4948731;28;20074;-82
2021/12/09 07:27:04;;;;;;;25.40;11.25;;;;;;;;;;4964540;28;20039;-83
2021/12/09 07:29:31;;;;;;;31.55;11.65;;;;;;;;;;4967559;28;20027;-83
2021/12/09 07:31:58;;;;;;;26.15;12.00;;;;;;;;;;4945421;28;20027;-84
2021/12/09 07:34:24;;;;;;;27.38;12.18;;;;;;;;;;4940604;28;20510;-84
2021/12/09 07:36:50;;;;;;;31.33;11.30;;;;;;;;;;4945412;28;20042;-82
2021/12/09 07:39:16;;;;;;;27.40;11.57;;;;;;;;;;4951651;28;20066;-83
2021/12/09 07:41:43;;;;;;;27.05;11.23;;;;;;;;;;4939497;28;20027;-84
2021/12/09 07:44:10;;;;;;;34.00;11.63;;;;;;;;;;4950579;28;20475;-85
2021/12/09 07:46:36;;;;;;;26.90;9.88;;;;;;;;;;4967427;28;20031;-84
2021/12/09 07:49:06;;;;;;;28.58;10.95;;;;;;;;;;4963768;28;20035;-83
2021/12/09 07:51:32;;;;;;;24.92;11.55;;;;;;;;;;4946325;28;20035;-83
2021/12/09 07:53:59;;;;;;;25.55;10.73;;;;;;;;;;4950051;28;20078;-85
2021/12/09 07:56:25;;;;;;;26.15;10.63;;;;;;;;;;4964059;28;20034;-84
2021/12/09 07:58:51;;;;;;;26.67;10.35;;;;;;;;;;4962822;28;20624;-84
2021/12/09 08:01:17;;;;;;;30.25;11.60;;;;;;;;;;4943536;28;20098;-85
2021/12/09 08:03:44;;;;;;;27.50;10.60;;;;;;;;;;4963001;28;20030;-84
2021/12/09 08:06:13;;;;;;;32.25;10.77;;;;;;;;;;4952242;28;20495;-84
2021/12/09 08:08:38;;;;;;;31.38;10.75;;;;;;;;;;4961545;28;20034;-85
2021/12/09 08:11:06;;;;;;;27.35;10.85;;;;;;;;;;4949192;28;20384;-85
2021/12/09 08:13:33;;;;;;;31.63;11.18;;;;;;;;;;4947641;28;20038;-85
2021/12/09 08:16:00;;;;;;;39.75;10.05;;;;;;;;;;4946301;28;20062;-84
2021/12/09 08:18:27;;;;;;;26.80;9.55;;;;;;;;;;4946614;28;20039;-83
2021/12/09 08:21:03;;;;;;;20.70;9.50;;;;;;;;;;4967117;28;21575;-83
2021/12/09 08:23:29;;;;;;;19.98;9.73;;;;;;;;;;4960132;28;20509;-84
2021/12/09 08:26:02;;;;;;;28.63;10.35;;;;;;;;;;4965375;28;20562;-84
2021/12/09 08:28:35;;;;;;;34.80;11.55;;;;;;;;;;4942806;28;20042;-85
2021/12/09 08:31:01;;;;;;;25.13;12.40;;;;;;;;;;4964601;28;20041;-84
2021/12/09 08:33:27;;;;;;;25.25;10.77;;;;;;;;;;4969091;28;20047;-84
2021/12/09 08:35:54;;;;;;;22.60;7.28;;;;;;;;;;4960178;28;20422;-83
2021/12/09 08:38:21;;;;;;;22.23;10.15;;;;;;;;;;4958981;28;20411;-84
2021/12/09 08:40:48;;;;;;;23.00;10.27;;;;;;;;;;4962219;28;20925;-84
2021/12/09 08:43:14;;;;;;;34.13;10.90;;;;;;;;;;4950483;28;20046;-83
2021/12/09 08:45:40;;;;;;;30.02;11.13;;;;;;;;;;4968737;28;20027;-84
2021/12/09 08:48:07;;;;;;;23.13;9.35;;;;;;;;;;4951386;28;20037;-84
2021/12/09 08:50:33;;;;;;;30.20;11.43;;;;;;;;;;4950472;28;20050;-84
2021/12/09 08:53:00;;;;;;;26.02;10.15;;;;;;;;;;4954151;28;20058;-83
2021/12/09 08:55:26;;;;;;;24.77;10.07;;;;;;;;;;4965918;28;20027;-83
2021/12/09 08:57:52;;;;;;;21.65;10.52;;;;;;;;;;4964631;28;20039;-84
2021/12/09 09:00:19;;;;;;;28.60;8.55;;;;;;;;;;4962190;28;20046;-84
2021/12/09 09:02:46;;;;;;;28.10;10.77;;;;;;;;;;4968418;28;20572;-82
2021/12/09 09:05:13;;;;;;;25.85;9.07;;;;;;;;;;4967338;28;20478;-82
2021/12/09 09:07:43;;;;;;;28.85;10.73;;;;;;;;;;4944398;28;20034;-82
2021/12/09 09:10:10;;;;;;;35.38;11.63;;;;;;;;;;4964066;28;20042;-83
2021/12/09 09:12:37;;;;;;;27.33;11.27;;;;;;;;;;4948282;28;20125;-82
2021/12/09 09:15:04;;;;;;;23.50;10.38;;;;;;;;;;4962085;28;20605;-82
2021/12/09 09:17:30;;;;;;;25.25;9.93;;;;;;;;;;4966307;28;20023;-82
2021/12/09 09:19:56;;;;;;;30.92;12.32;;;;;;;;;;4968358;28;20379;-82
2021/12/09 09:22:22;;;;;;;30.33;11.10;;;;;;;;;;4948739;28;20038;-82
2021/12/09 09:24:48;;;;;;;30.77;10.85;;;;;;;;;;4965057;28;20090;-82
2021/12/09 09:27:14;;;;;;;19.23;9.30;;;;;;;;;;4955005;28;20043;-82
2021/12/09 09:29:41;;;;;;;23.15;10.27;;;;;;;;;;4946671;28;20031;-82
2021/12/09 09:32:10;;;;;;;27.52;9.50;;;;;;;;;;4952804;28;20027;-82
2021/12/09 09:34:36;;;;;;;33.10;9.82;;;;;;;;;;4967274;28;20119;-82
2021/12/09 09:37:04;;;;;;;17.40;7.78;;;;;;;;;;4947998;28;20504;-82
2021/12/09 09:39:32;;;;;;;21.88;9.27;;;;;;;;;;4946720;28;20550;-81
2021/12/09 09:42:06;;;;;;;20.90;9.18;;;;;;;;;;4968767;28;20038;-82
2021/12/09 09:44:46;;;;;;;15.98;7.28;;;;;;;;;;4988310;28;20494;-81
2021/12/09 09:47:12;;;;;;;24.38;8.50;;;;;;;;;;4985306;28;20046;-81
2021/12/09 09:49:38;;;;;;;20.85;7.18;;;;;;;;;;4969787;28;20041;-81
2021/12/09 09:52:05;;;;;;;29.65;10.35;;;;;;;;;;4964739;28;20030;-81
2021/12/09 09:54:31;;;;;;;12.43;5.05;;;;;;;;;;4986531;28;20035;-81
2021/12/09 09:56:57;;;;;;;20.35;7.00;;;;;;;;;;4963441;28;20081;-81
2021/12/09 09:59:23;;;;;;;25.95;9.88;;;;;;;;;;4970017;28;20034;-81
2021/12/09 10:01:52;;;;;;;25.10;10.75;;;;;;;;;;4982365;28;20125;-81
2021/12/09 10:04:44;;;;;;;28.42;9.07;;;;;;;;;;4967082;28;20034;-81
2021/12/09 10:07:11;;;;;;;26.95;7.45;;;;;;;;;;4985044;28;20107;-81
2021/12/09 10:09:38;;;;;;;17.58;6.65;;;;;;;;;;4985371;28;20684;-80
2021/12/09 10:12:05;;;;;;;10.85;5.35;;;;;;;;;;4966400;28;20034;-81
2021/12/09 10:14:33;;;;;;;22.73;7.28;;;;;;;;;;4979334;28;20034;-80
2021/12/09 10:17:04;;;;;;;16.48;6.78;;;;;;;;;;4983986;28;20063;-81
2021/12/09 10:19:31;;;;;;;17.00;9.20;;;;;;;;;;4985370;28;20066;-81
2021/12/09 10:22:10;;;;;;;18.80;7.10;;;;;;;;;;4984976;28;20029;-82
2021/12/09 10:24:37;;;;;;;19.88;7.20;;;;;;;;;;4966023;28;20100;-81
2021/12/09 10:27:05;;;;;;;15.07;7.30;;;;;;;;;;4985056;28;20535;-80
2021/12/09 10:29:50;;;;;;;15.57;7.70;;;;;;;;;;4984567;28;20036;-81
2021/12/09 10:32:24;;;;;;;17.77;7.30;;;;;;;;;;4965915;28;20049;-81
2021/12/09 10:34:50;;;;;;;13.30;7.25;;;;;;;;;;4946954;28;20054;-81
2021/12/09 10:37:21;;;;;;;18.45;7.63;;;;;;;;;;4948820;28;20035;-81
2021/12/09 10:39:49;;;;;;;19.17;6.40;;;;;;;;;;4964316;28;20533;-81
2021/12/09 10:42:22;;;;;;;16.90;7.30;;;;;;;;;;4947244;28;20475;-81
2021/12/09 10:44:51;;;;;;;16.23;7.47;;;;;;;;;;4964489;28;20074;-81
2021/12/09 10:47:34;;;;;;;16.35;6.85;;;;;;;;;;4962688;28;20085;-81
2021/12/09 10:50:10;;;;;;;15.77;4.68;;;;;;;;;;4966628;28;20212;-81
2021/12/09 10:52:38;;;;;;;;;;;;;;;;;;4943695;28;20471;-81
2021/12/09 10:55:09;;;;;;;19.63;6.53;;;;;;;;;;4965156;28;19925;-81
2021/12/09 10:57:35;;;;;;;15.25;6.20;;;;;;;;;;4952893;28;20054;-81
2021/12/09 11:00:19;;;;;;;19.48;6.22;;;;;;;;;;4986390;28;20036;-81
2021/12/09 11:02:56;;;;;;;14.18;6.18;;;;;;;;;;4963070;28;20057;-81
2021/12/09 11:05:23;;;;;;;14.60;6.28;;;;;;;;;;4980494;28;20037;-81
2021/12/09 11:07:49;;;;;;;20.52;6.95;;;;;;;;;;4980855;28;20026;-81
2021/12/09 11:10:21;;;;;;;18.98;5.53;;;;;;;;;;4985965;28;20031;-81
2021/12/09 11:12:55;;;;;;;18.08;6.68;;;;;;;;;;4963387;28;20030;-81
2021/12/09 11:15:23;;;;;;;15.77;6.68;;;;;;;;;;4986477;28;20421;-81
2021/12/09 11:17:52;;;;;;;15.57;4.95;;;;;;;;;;4982693;28;20020;-81
2021/12/09 11:20:37;;;;;;;18.08;7.22;;;;;;;;;;4965056;28;20058;-80
2021/12/09 11:23:22;;;;;;;21.40;7.95;;;;;;;;;;4967105;28;20023;-81
2021/12/09 11:25:50;;;;;;;14.45;5.63;;;;;;;;;;4980663;28;20041;-80
2021/12/09 11:28:16;;;;;;;23.73;6.72;;;;;;;;;;4982494;28;20038;-81
2021/12/09 11:31:04;;;;;;;17.17;5.13;;;;;;;;;;4964270;28;20038;-81
2021/12/09 11:33:45;;;;;;;15.40;6.60;;;;;;;;;;4960406;28;20153;-81
2021/12/09 11:36:37;;;;;;;8.85;3.70;;;;;;;;;;4961091;28;20031;-81
2021/12/09 11:39:10;;;;;;;21.10;6.97;;;;;;;;;;4948201;28;20578;-81
2021/12/09 11:41:38;;;;;;;19.75;7.05;;;;;;;;;;4956136;28;20023;-81
2021/12/09 11:44:06;;;;;;;17.30;5.65;;;;;;;;;;4945685;28;20035;-80
2021/12/09 11:46:33;;;;;;;18.50;7.10;;;;;;;;;;4965147;28;20074;-81
2021/12/09 11:48:59;;;;;;;15.93;7.22;;;;;;;;;;4936597;28;20040;-80
2021/12/09 11:51:26;;;;;;;20.45;6.00;;;;;;;;;;4945775;28;20038;-80
2021/12/09 11:53:56;;;;;;;9.15;3.92;;;;;;;;;;4968826;28;20027;-81
2021/12/09 12:15:18;;;;;;;15.60;5.80;;;;;;;;;;4984769;28;20027;-80
2021/12/09 12:21:01;;;;;;;24.83;9.02;;;;;;;;;;4982049;28;20077;-80
2021/12/09 12:24:31;;;;;;;26.27;9.02;;;;;;;;;;4980680;28;20577;-81
2021/12/09 12:29:33;;;;;;;28.42;10.27;;;;;;;;;;4985454;28;20046;-80
2021/12/09 12:37:45;;;;;;;20.25;9.38;;;;;;;;;;4982178;28;20498;-82
2021/12/09 12:40:12;;;;;;;20.00;6.45;;;;;;;;;;4982003;28;20333;-82
2021/12/09 12:42:54;;;;;;;23.77;9.35;;;;;;;;;;4962094;28;20050;-82
2021/12/09 12:48:31;;;;;;;21.90;8.50;;;;;;;;;;4982377;28;20085;-82
2021/12/09 12:53:57;;;;;;;11.68;6.05;;;;;;;;;;4976316;28;20101;-82
2021/12/09 12:56:31;;;;;;;25.55;8.40;;;;;;;;;;4968546;28;20037;-82
2021/12/09 12:59:14;;;;;;;23.35;8.80;;;;;;;;;;4962387;28;20386;-83
2021/12/09 13:01:49;;;;;;;33.72;7.72;;;;;;;;;;4978766;28;20022;-83
2021/12/09 13:04:51;;;;;;;22.43;9.43;;;;;;;;;;4980425;28;20126;-82
2021/12/09 13:07:25;;;;;;;21.60;8.18;;;;;;;;;;4979368;28;20801;-82
2021/12/09 13:10:01;;;;;;;19.45;8.13;;;;;;;;;;4964209;28;20408;-82
2021/12/09 13:12:44;;;;;;;20.77;9.10;;;;;;;;;;4974346;28;20415;-82
2021/12/09 13:15:20;;;;;;;17.02;8.55;;;;;;;;;;4961978;28;20053;-82
2021/12/09 13:18:00;;;;;;;21.50;9.38;;;;;;;;;;4970362;28;20659;-81
2021/12/09 13:20:31;;;;;;;24.35;9.65;;;;;;;;;;4980267;28;20592;-82
2021/12/09 13:23:14;;;;;;;20.58;9.23;;;;;;;;;;4956751;28;20050;-82
2021/12/09 13:26:00;;;;;;;21.38;8.30;;;;;;;;;;4967131;28;20023;-82
2021/12/09 13:28:36;;;;;;;16.20;7.65;;;;;;;;;;4963355;28;20022;-82
2021/12/09 13:31:10;;;;;;;16.13;6.97;;;;;;;;;;4984699;28;20023;-82
2021/12/09 13:34:08;;;;;;;22.00;10.13;;;;;;;;;;4980611;28;20143;-82
2021/12/09 13:54:58;;;;;;;27.42;9.85;;;;;;;;;;4983859;28;20058;-82
2021/12/09 13:57:32;;;;;;;22.00;10.65;;;;;;;;;;4963690;28;20057;-82
2021/12/09 13:59:58;;;;;;;28.05;11.00;;;;;;;;;;4986450;28;20054;-82
2021/12/09 14:02:26;;;;;;;24.98;10.43;;;;;;;;;;4987320;28;20508;-82
2021/12/09 14:04:56;;;;;;;39.72;11.65;;;;;;;;;;4982378;28;20157;-82
2021/12/09 14:07:26;;;;;;;23.02;10.32;;;;;;;;;;4986469;28;20533;-82
2021/12/09 14:09:57;;;;;;;28.27;9.02;;;;;;;;;;4965860;28;20030;-83
2021/12/09 14:12:25;;;;;;;29.25;10.77;;;;;;;;;;4966443;28;20830;-82
2021/12/09 14:15:07;;;;;;;27.02;10.55;;;;;;;;;;4982510;28;20026;-83
2021/12/09 14:17:36;;;;;;;25.95;10.35;;;;;;;;;;4964324;28;20035;-82
2021/12/09 14:20:03;;;;;;;21.35;9.82;;;;;;;;;;4981082;28;20375;-82
2021/12/09 14:22:29;;;;;;;28.48;11.20;;;;;;;;;;4967389;28;20018;-83
2021/12/09 14:25:00;;;;;;;38.15;10.32;;;;;;;;;;4982878;28;20552;-82
2021/12/09 14:27:26;;;;;;;34.65;10.63;;;;;;;;;;4983936;28;20022;-83
2021/12/09 14:29:53;;;;;;;37.67;11.82;;;;;;;;;;4982592;28;20542;-83
2021/12/09 14:32:21;;;;;;;18.00;6.93;;;;;;;;;;4955581;28;20137;-82
2021/12/09 14:34:52;;;;;;;23.85;9.73;;;;;;;;;;4966894;28;20050;-82
2021/12/09 14:37:19;;;;;;;28.23;9.65;;;;;;;;;;4977375;28;20052;-82
2021/12/09 14:39:46;;;;;;;15.27;6.63;;;;;;;;;;4964431;28;20486;-82
2021/12/09 14:42:21;;;;;;;29.15;9.38;;;;;;;;;;4961144;28;20034;-83
2021/12/09 14:44:55;;;;;;;27.23;11.25;;;;;;;;;;4973579;28;20026;-82
2021/12/09 14:47:21;;;;;;;27.67;10.45;;;;;;;;;;4978448;28;20517;-83
2021/12/09 14:49:49;;;;;;;32.60;9.75;;;;;;;;;;4979411;28;20562;-83
2021/12/09 14:52:34;;;;;;;31.17;12.20;;;;;;;;;;4976213;28;20100;-83
2021/12/09 14:55:19;;;;;;;24.38;10.10;;;;;;;;;;4963770;28;20445;-83
2021/12/09 14:58:09;;;;;;;8.88;4.10;;;;;;;;;;4978826;28;20473;-83
2021/12/09 15:00:45;;;;;;;40.65;10.27;;;;;;;;;;4978260;28;20445;-83
2021/12/09 15:03:11;;;;;;;;;;;;;;;;;;4979722;28;20038;-83
2021/12/09 15:05:59;;;;;;;26.35;10.48;;;;;;;;;;4960905;28;19918;-80
2021/12/09 15:08:26;;;;;;;25.15;11.77;;;;;;;;;;4955144;28;20066;-81
2021/12/09 15:10:54;;;;;;;30.00;10.88;;;;;;;;;;4960110;28;20120;-81
2021/12/09 15:13:21;;;;;;;25.67;6.78;;;;;;;;;;4962028;28;20030;-81
2021/12/09 15:15:48;;;;;;;30.15;10.57;;;;;;;;;;4974861;28;20030;-81
2021/12/09 15:18:15;;;;;;;26.48;11.43;;;;;;;;;;4985450;28;20022;-80
2021/12/09 15:20:50;;;;;;;25.10;8.27;;;;;;;;;;4964479;28;20402;-81
2021/12/09 15:23:40;;;;;;;26.27;12.80;;;;;;;;;;4965263;28;20034;-81
2021/12/09 15:26:16;;;;;;;29.08;11.25;;;;;;;;;;4981035;28;20474;-81
2021/12/09 15:28:43;;;;;;;27.10;11.32;;;;;;;;;;4983738;28;20440;-81
2021/12/09 15:31:17;;;;;;;25.70;10.32;;;;;;;;;;4981910;28;20462;-80
2021/12/09 15:33:46;;;;;;;35.05;12.95;;;;;;;;;;4981984;28;20066;-81